»·PEaware :: N350KT KABQ-KTUS

N350KT :: KABQ-KTUS

FLIGHT INFORMATION

Flight Status: Arrived
Operator: Privately registered:
United States
More flights under this callsign
Pilot: Aundrey S. (17120)
Aircraft: BEECH AIRCRAFT SUPER KING AIR 350
(B350)
More flights by this aircraft type
Origin: KABQ Albuquerque Intl Sunport
United States
Destination: KTUS Tucson Intl
United States
More flights between these airports :: More routes between these airports
Route: +LARGO3 ABQ ONM J104 TUS
File this flight plan on PilotEdge
Remarks:
Altitude:
(Current/Filed)
19,000ft
Speed:
(Current/Filed)
310kts
Departed: 12-Nov-20 08:35 PM
Arrived: 12-Nov-20 10:08 PM
Distance/Time
Traveled:
278nm/1:33
Distance/Time
To Go:
Arrived

Flight Plot

Page will automatically refresh every two minutes.

Flight plan parsing failed; only flown route is shown


Map Options




Map Legend


Flown Route
Filed Route
Departure Airport
Arrival Airport
Navaid (VOR, NDB)
Fix

Horizontal Profiles

Position Reports

Time Latitude Longitude Heading Altitude Ground
Speed
12-Nov-20 20:16 35.039108 -106.619715 58 5306ft 0kts
12-Nov-20 20:17 35.039108 -106.619715 58 5306ft 0kts
12-Nov-20 20:17 35.039108 -106.619715 58 5306ft 0kts
12-Nov-20 20:19 35.039108 -106.619715 58 5306ft 0kts
12-Nov-20 20:19 35.039108 -106.619715 58 5306ft 0kts
12-Nov-20 20:20 35.039108 -106.619715 58 5306ft 0kts
12-Nov-20 20:21 35.039108 -106.619715 58 5306ft 0kts
12-Nov-20 20:22 35.039108 -106.619715 58 5306ft 0kts
12-Nov-20 20:23 35.039108 -106.619715 58 5306ft 0kts
12-Nov-20 20:24 35.039108 -106.619715 58 5306ft 0kts
12-Nov-20 20:25 35.039108 -106.619715 58 5306ft 0kts
12-Nov-20 20:26 35.039108 -106.619715 58 5306ft 0kts
12-Nov-20 20:27 35.039108 -106.619715 58 5306ft 0kts
12-Nov-20 20:28 35.039108 -106.619715 58 5306ft 0kts
12-Nov-20 20:29 35.039730 -106.620596 278 5302ft 16kts
12-Nov-20 20:30 35.043020 -106.621415 0 5298ft 2kts
12-Nov-20 20:31 35.043072 -106.621414 0 5298ft 0kts
12-Nov-20 20:32 35.043072 -106.621414 0 5298ft 0kts
12-Nov-20 20:33 35.044359 -106.621215 89 5300ft 2kts
12-Nov-20 20:34 35.044299 -106.605343 89 5460ft 147kts
12-Nov-20 20:35 35.072147 -106.585642 311 7876ft 183kts
12-Nov-20 20:36 35.099415 -106.646984 298 9021ft 251kts
12-Nov-20 20:37 35.133183 -106.724012 297 11460ft 205kts
12-Nov-20 20:38 35.163129 -106.780052 298 13922ft 186kts
12-Nov-20 20:39 35.191314 -106.829049 298 15787ft 179kts
12-Nov-20 20:40 35.198651 -106.880380 228 17319ft 172kts
12-Nov-20 20:41 35.146935 -106.884883 188 18691ft 199kts
12-Nov-20 20:42 35.091595 -106.880343 189 19964ft 201kts
12-Nov-20 20:43 35.032171 -106.875917 188 20234ft 234kts
12-Nov-20 20:44 34.963229 -106.870429 187 20222ft 259kts
12-Nov-20 20:45 34.889171 -106.864477 186 20217ft 272kts
12-Nov-20 20:46 34.812690 -106.858386 186 20215ft 279kts
12-Nov-20 20:47 34.734920 -106.852197 186 20215ft 282kts
12-Nov-20 20:48 34.656839 -106.845993 186 20214ft 282kts
12-Nov-20 20:49 34.578400 -106.839771 186 20211ft 283kts
12-Nov-20 20:50 34.499687 -106.833731 186 20212ft 283kts
12-Nov-20 20:51 34.421008 -106.827575 186 20212ft 283kts
12-Nov-20 20:52 34.343773 -106.827656 207 20214ft 264kts
12-Nov-20 20:53 34.289648 -106.880377 230 20210ft 250kts
12-Nov-20 20:54 34.241246 -106.940642 230 20209ft 250kts
12-Nov-20 20:55 34.192471 -107.000261 230 20209ft 250kts
12-Nov-20 20:56 34.143468 -107.059826 230 20208ft 250kts
12-Nov-20 20:57 34.094528 -107.119227 230 20207ft 250kts
12-Nov-20 20:58 34.045437 -107.178734 230 20204ft 250kts
12-Nov-20 20:59 33.996476 -107.237952 230 20206ft 249kts
12-Nov-20 21:00 33.947680 -107.296869 230 20204ft 249kts
12-Nov-20 21:01 33.898677 -107.355935 230 20201ft 248kts
12-Nov-20 21:02 33.849909 -107.414593 229 20200ft 249kts
12-Nov-20 21:03 33.800951 -107.473390 229 20189ft 249kts
12-Nov-20 21:04 33.751856 -107.532253 229 20179ft 250kts
12-Nov-20 21:05 33.702692 -107.591125 229 20186ft 249kts
12-Nov-20 21:06 33.653626 -107.649759 229 20185ft 249kts
12-Nov-20 21:07 33.604263 -107.708687 229 20196ft 251kts
12-Nov-20 21:08 33.554750 -107.767650 229 20193ft 252kts
12-Nov-20 21:09 33.505097 -107.826678 229 20194ft 252kts
12-Nov-20 21:10 33.455371 -107.885724 229 20192ft 251kts
12-Nov-20 21:11 33.405836 -107.944424 229 20194ft 251kts
12-Nov-20 21:12 33.356307 -108.002977 229 20212ft 250kts
12-Nov-20 21:13 33.306710 -108.061700 229 20214ft 252kts
12-Nov-20 21:14 33.256789 -108.120596 228 20218ft 253kts
12-Nov-20 21:15 33.206485 -108.179724 228 20214ft 254kts
12-Nov-20 21:16 33.156425 -108.238679 229 20212ft 253kts
12-Nov-20 21:17 33.106245 -108.297283 228 20230ft 252kts
12-Nov-20 21:18 33.056022 -108.356251 229 20213ft 253kts
12-Nov-20 21:19 33.005932 -108.414686 228 20225ft 251kts
12-Nov-20 21:20 32.956141 -108.472718 228 20209ft 249kts
12-Nov-20 21:21 32.906778 -108.530100 228 20210ft 247kts
12-Nov-20 21:22 32.857422 -108.587457 228 20214ft 246kts
12-Nov-20 21:23 32.808512 -108.644245 228 20212ft 246kts
12-Nov-20 21:24 32.759341 -108.701235 228 20224ft 247kts
12-Nov-20 21:25 32.709959 -108.758385 228 20211ft 248kts
12-Nov-20 21:26 32.660372 -108.815668 228 20189ft 249kts
12-Nov-20 21:27 32.610615 -108.873048 228 20165ft 249kts
12-Nov-20 21:28 32.560995 -108.930174 228 20142ft 249kts
12-Nov-20 21:29 32.511197 -108.987423 228 20127ft 249kts
12-Nov-20 21:30 32.461698 -109.044208 228 20196ft 246kts
12-Nov-20 21:31 32.412408 -109.100697 228 20176ft 247kts
12-Nov-20 21:32 32.362963 -109.157266 228 20167ft 247kts
12-Nov-20 21:33 32.313401 -109.213885 228 20169ft 247kts
12-Nov-20 21:34 32.269556 -109.274888 250 20174ft 243kts
12-Nov-20 21:35 32.260153 -109.354564 260 20122ft 246kts
12-Nov-20 21:36 32.252691 -109.435330 260 19832ft 256kts
12-Nov-20 21:37 32.244009 -109.523978 261 18331ft 279kts
12-Nov-20 21:38 32.234969 -109.614879 261 16962ft 274kts
12-Nov-20 21:39 32.226061 -109.701330 260 16992ft 262kts
12-Nov-20 21:40 32.217252 -109.786603 260 17017ft 262kts
12-Nov-20 21:41 32.208387 -109.872795 260 16447ft 273kts
12-Nov-20 21:42 32.199103 -109.963352 261 14790ft 282kts
12-Nov-20 21:43 32.189517 -110.055288 261 12978ft 280kts
12-Nov-20 21:44 32.179917 -110.146401 262 11175ft 281kts
12-Nov-20 21:45 32.170240 -110.237345 262 9985ft 265kts
12-Nov-20 21:46 32.160994 -110.322199 262 9997ft 259kts
12-Nov-20 21:47 32.151592 -110.406699 262 9998ft 258kts
12-Nov-20 21:48 32.142427 -110.490705 262 9998ft 258kts
12-Nov-20 21:49 32.133244 -110.575210 262 9610ft 263kts
12-Nov-20 21:50 32.124840 -110.655156 271 8947ft 217kts
12-Nov-20 21:51 32.125491 -110.719487 269 8978ft 183kts
12-Nov-20 21:52 32.126005 -110.780580 269 8984ft 188kts
12-Nov-20 21:53 32.126522 -110.844205 269 8988ft 199kts
12-Nov-20 21:54 32.138732 -110.908119 305 8945ft 208kts
12-Nov-20 21:56 32.172749 -110.962438 305 8788ft 205kts
12-Nov-20 21:57 32.207677 -111.015934 309 8588ft 205kts
12-Nov-20 21:58 32.242279 -111.063724 311 8352ft 195kts
12-Nov-20 21:59 32.279232 -111.114062 305 6901ft 198kts
12-Nov-20 22:00 32.294175 -111.164713 205 5891ft 165kts
12-Nov-20 22:01 32.267577 -111.145660 106 5565ft 137kts
12-Nov-20 22:02 32.252378 -111.103781 125 5338ft 135kts
12-Nov-20 22:03 32.228686 -111.069070 132 4878ft 137kts
12-Nov-20 22:04 32.201820 -111.036980 133 4439ft 137kts
12-Nov-20 22:05 32.174508 -111.005028 138 3890ft 136kts
12-Nov-20 22:06 32.149561 -110.976286 136 3084ft 114kts
12-Nov-20 22:07 32.128211 -110.953494 137 2635ft 98kts
12-Nov-20 22:08 32.114372 -110.937049 74 2609ft 11kts
12-Nov-20 22:09 32.114616 -110.936690 44 2610ft 0kts
12-Nov-20 22:10 32.116445 -110.937269 314 2606ft 35kts
12-Nov-20 22:11 32.121654 -110.943391 315 2587ft 14kts
12-Nov-20 22:12 32.124076 -110.944653 257 2580ft 6kts

Navigation Log

Ident Type
Flight plan parsing failed, navigation log unavailable